createdAt,value
2023-01-01T00:01:32.840Z,68.61
2023-01-01T00:04:06.704Z,68.55
2023-01-01T00:06:35.078Z,68.63
2023-01-01T00:09:21.188Z,68.92
2023-01-01T00:11:52.464Z,68.90
2023-01-01T00:14:20.635Z,68.79
2023-01-01T00:16:48.879Z,69.00
2023-01-01T00:19:18.803Z,69.04
2023-01-01T00:21:47.362Z,69.29
2023-01-01T00:38:47.089Z,68.76
2023-01-01T00:41:16.921Z,68.62
2023-01-01T00:43:47.963Z,68.35
2023-01-01T00:46:16.681Z,68.40
2023-01-01T00:48:44.952Z,68.29
2023-01-01T00:51:13.842Z,68.50
2023-01-01T00:53:42.212Z,68.49
2023-01-01T00:56:12.006Z,68.40
2023-01-01T00:58:46.222Z,68.74
2023-01-01T01:01:29.386Z,68.72
2023-01-01T01:04:00.658Z,68.85
2023-01-01T01:06:32.220Z,68.36
2023-01-01T01:09:00.714Z,68.84
2023-01-01T01:11:30.290Z,69.02
2023-01-01T01:13:59.289Z,69.27
2023-01-01T01:16:30.621Z,69.13
2023-01-01T01:19:03.463Z,69.39
2023-01-01T01:21:37.981Z,69.42
2023-01-01T01:24:14.956Z,69.56
2023-01-01T01:26:48.394Z,69.39
2023-01-01T01:29:36.130Z,69.33
2023-01-01T01:32:14.261Z,69.54
2023-01-01T01:34:46.121Z,69.34
2023-01-01T01:37:14.823Z,69.47
2023-01-01T01:39:43.226Z,69.23
2023-01-01T01:42:18.332Z,69.08
2023-01-01T01:44:58.011Z,69.37
2023-01-01T01:47:32.533Z,69.46
2023-01-01T01:50:07.661Z,68.86
2023-01-01T01:52:43.793Z,68.73
2023-01-01T01:55:12.912Z,69.02
2023-01-01T01:57:43.526Z,68.84
2023-01-01T02:00:13.575Z,68.73
2023-01-01T02:02:49.632Z,68.93
2023-01-01T02:05:20.360Z,68.75
2023-01-01T02:07:48.929Z,69.04
2023-01-01T02:10:17.329Z,68.89
2023-01-01T02:12:47.229Z,68.62
2023-01-01T02:15:16.420Z,68.50
2023-01-01T02:17:54.135Z,68.23
2023-01-01T02:20:33.870Z,68.39
2023-01-01T02:23:46.399Z,68.20
2023-01-01T02:26:43.398Z,68.61
2023-01-01T02:29:41.894Z,68.37
2023-01-01T02:32:17.689Z,68.56
2023-01-01T02:34:54.281Z,68.35
2023-01-01T02:37:28.965Z,68.95
2023-01-01T02:40:01.757Z,68.65
2023-01-01T02:42:31.880Z,68.91
2023-01-01T02:45:02.298Z,69.13
2023-01-01T02:47:30.665Z,68.88
2023-01-01T02:50:07.280Z,68.96
2023-01-01T02:52:50.880Z,69.25
2023-01-01T02:55:28.654Z,68.77
2023-01-01T02:58:25.551Z,69.02
2023-01-01T03:00:59.699Z,68.97
2023-01-01T03:03:34.380Z,68.98
2023-01-01T03:06:25.889Z,68.88
2023-01-01T03:09:03.444Z,69.27
2023-01-01T03:11:39.963Z,69.39
2023-01-01T03:14:14.434Z,68.97
2023-01-01T03:16:49.336Z,69.35
2023-01-01T03:19:21.004Z,69.26
2023-01-01T03:22:00.627Z,69.77
2023-01-01T03:24:36.659Z,69.94
2023-01-01T03:27:11.121Z,69.93
2023-01-01T03:29:45.419Z,70.04
2023-01-01T03:32:26.065Z,69.94
2023-01-01T03:34:56.492Z,70.14
2023-01-01T03:37:31.111Z,71.31
2023-01-01T03:40:01.138Z,72.69
2023-01-01T03:42:36.500Z,74.81
2023-01-01T03:45:10.988Z,75.58
2023-01-01T03:47:46.872Z,76.86
2023-01-01T03:50:16.463Z,77.55
2023-01-01T03:52:52.873Z,79.04
2023-01-01T03:55:28.165Z,80.18
2023-01-01T03:58:04.121Z,81.86
2023-01-01T04:00:37.474Z,82.01
2023-01-01T04:03:11.200Z,83.27
2023-01-01T04:05:41.103Z,85.04
2023-01-01T04:08:17.217Z,85.09
2023-01-01T04:10:48.966Z,85.71
2023-01-01T04:13:17.436Z,86.77
2023-01-01T04:15:46.001Z,87.18
2023-01-01T04:18:16.194Z,88.03
2023-01-01T04:20:44.787Z,88.90
2023-01-01T04:23:15.886Z,88.53
2023-01-01T04:25:44.341Z,88.65
2023-01-01T04:28:13.142Z,89.23
2023-01-01T04:33:09.323Z,89.14
2023-01-01T04:35:40.288Z,88.71
2023-01-01T04:38:09.111Z,88.26
2023-01-01T04:40:38.988Z,88.20
2023-01-01T04:43:08.149Z,88.22
2023-01-01T04:45:36.736Z,88.19
2023-01-01T04:48:09.191Z,87.68
2023-01-01T04:50:39.538Z,87.81
2023-01-01T04:53:08.323Z,87.12
2023-01-01T04:55:40.474Z,85.26
2023-01-01T04:58:11.671Z,84.46
2023-01-01T05:00:40.505Z,83.17
2023-01-01T05:03:09.421Z,82.81
2023-01-01T05:05:39.590Z,82.77
2023-01-01T05:08:16.893Z,82.47
2023-01-01T05:10:51.754Z,82.40
2023-01-01T05:13:40.745Z,82.33
2023-01-01T05:19:37.492Z,81.17
2023-01-01T05:23:06.456Z,81.19
2023-01-01T09:20:03.417Z,79.80
2023-01-01T09:22:58.633Z,79.85
2023-01-01T09:29:54.200Z,79.78
2023-01-01T09:40:00.217Z,80.98
2023-01-01T09:42:37.578Z,81.42
2023-01-01T09:45:21.432Z,81.80
2023-01-01T09:47:54.471Z,82.42
2023-01-01T09:50:27.095Z,83.19
2023-01-01T09:52:59.061Z,83.60
2023-01-01T09:55:32.019Z,83.91
2023-01-01T09:58:04.096Z,83.94
2023-01-01T10:00:39.616Z,83.95
2023-01-01T10:03:34.626Z,84.12
2023-01-01T10:06:11.970Z,84.18
2023-01-01T10:08:55.859Z,84.66
2023-01-01T10:11:33.289Z,84.61
2023-01-01T10:14:03.211Z,84.71
2023-01-01T10:16:36.141Z,84.80
2023-01-01T10:19:21.960Z,84.89
2023-01-01T10:21:52.390Z,84.91
2023-01-01T10:24:36.090Z,85.07
2023-01-01T10:27:29.582Z,85.32
2023-01-01T10:30:04.380Z,85.72
2023-01-01T10:32:39.256Z,85.41
2023-01-01T10:35:15.886Z,85.01
2023-01-01T10:37:44.349Z,84.92
2023-01-01T10:40:19.397Z,84.72
2023-01-01T10:42:51.955Z,85.12
2023-01-01T10:45:25.222Z,84.78
2023-01-01T10:48:17.531Z,85.47
2023-01-01T10:50:49.716Z,85.03
2023-01-01T10:53:25.342Z,85.47
2023-01-01T10:56:02.440Z,86.54
2023-01-01T10:58:45.499Z,86.42
2023-01-01T11:01:22.779Z,86.25
2023-01-01T11:03:59.527Z,86.79
2023-01-01T11:06:29.606Z,86.67
2023-01-01T11:09:00.222Z,87.13
2023-01-01T11:11:32.277Z,87.50
2023-01-01T11:14:06.288Z,87.39
2023-01-01T11:16:34.910Z,87.46
2023-01-01T11:19:05.666Z,87.74
2023-01-01T11:21:35.747Z,87.92
2023-01-01T11:24:21.893Z,88.03
2023-01-01T11:27:29.117Z,88.38
2023-01-01T11:30:23.787Z,88.65
2023-01-01T11:32:55.806Z,88.45
2023-01-01T11:35:26.508Z,88.89
2023-01-01T11:37:57.045Z,88.71
2023-01-01T11:40:27.822Z,88.51
2023-01-01T11:43:03.730Z,89.05
2023-01-01T11:45:38.054Z,89.17
2023-01-01T11:48:13.185Z,88.91
2023-01-01T11:50:43.225Z,88.88
2023-01-01T11:53:29.234Z,89.04
2023-01-01T11:56:10.466Z,88.89
2023-01-01T11:58:49.151Z,88.81
2023-01-01T12:01:27.934Z,88.06
2023-01-01T12:04:03.934Z,86.96
2023-01-01T12:06:37.619Z,86.23
2023-01-01T12:09:18.256Z,86.14
2023-01-01T12:12:27.895Z,85.07
2023-01-01T12:15:01.069Z,84.72
2023-01-01T12:17:36.682Z,83.93
2023-01-01T12:20:14.067Z,84.26
2023-01-01T12:22:44.031Z,84.28
2023-01-01T12:25:16.603Z,84.26
2023-01-01T12:28:02.173Z,83.83
2023-01-01T12:30:37.233Z,84.30
2023-01-01T12:33:23.077Z,83.84
2023-01-01T12:36:12.799Z,83.34
2023-01-01T12:39:10.666Z,82.92
2023-01-01T12:41:51.423Z,83.04
2023-01-01T12:44:34.692Z,83.01
2023-01-01T12:47:07.862Z,83.10
2023-01-01T12:49:55.413Z,82.10
2023-01-01T12:56:22.750Z,82.74
2023-01-01T12:58:57.928Z,82.99
2023-01-01T13:01:33.583Z,82.71
2023-01-01T13:04:05.693Z,82.68
2023-01-01T13:06:42.579Z,82.32
2023-01-01T13:09:16.941Z,82.33
2023-01-01T13:11:48.148Z,82.46
2023-01-01T13:14:16.597Z,82.48
2023-01-01T13:16:50.432Z,82.78
2023-01-01T13:19:36.547Z,83.13
2023-01-01T13:22:42.203Z,82.79
2023-01-01T13:25:22.432Z,83.08
2023-01-01T13:28:13.915Z,83.21
2023-01-01T13:30:52.869Z,83.23
2023-01-01T13:33:29.771Z,83.24
2023-01-01T13:36:35.762Z,83.70
2023-01-01T13:39:05.744Z,83.69
2023-01-01T13:41:41.510Z,83.93
2023-01-01T13:44:23.849Z,83.87
2023-01-01T13:47:29.886Z,84.13
2023-01-01T13:50:07.241Z,83.89
2023-01-01T13:53:06.497Z,84.24
2023-01-01T13:55:48.726Z,84.31
2023-01-01T13:58:51.513Z,83.91
2023-01-01T14:01:35.734Z,84.38
2023-01-01T14:04:10.602Z,84.33
2023-01-01T14:06:48.317Z,84.61
2023-01-01T14:09:21.379Z,84.37
2023-01-01T14:11:57.773Z,84.43
2023-01-01T17:01:13.499Z,89.22
2023-01-01T17:03:41.739Z,89.56
2023-01-01T17:06:11.249Z,89.95
2023-01-01T17:08:39.852Z,90.23
2023-01-01T17:11:11.106Z,90.21
2023-01-01T17:17:33.241Z,90.86
2023-01-01T17:20:01.565Z,91.10
2023-01-01T17:22:34.173Z,91.34
2023-01-01T17:25:03.001Z,92.12
2023-01-01T17:27:31.286Z,92.17
2023-01-01T17:29:59.653Z,92.28
2023-01-01T17:32:27.805Z,92.59
2023-01-01T17:35:04.292Z,92.75
2023-01-01T17:42:58.827Z,93.06
2023-01-01T17:45:27.284Z,93.36
2023-01-01T17:47:55.445Z,93.73
2023-01-01T17:50:24.973Z,94.01
2023-01-01T17:52:53.969Z,94.03
2023-01-01T17:55:22.058Z,95.49
2023-01-01T17:57:50.310Z,95.68
2023-01-01T18:00:18.561Z,96.24
2023-01-01T18:02:49.232Z,96.39
2023-01-01T18:05:17.613Z,97.01
2023-01-01T18:07:47.284Z,97.34
2023-01-01T18:10:15.540Z,97.86
2023-01-01T18:12:45.565Z,98.72
2023-01-01T18:15:13.762Z,99.54
2023-01-01T18:17:41.865Z,99.89
2023-01-01T18:20:11.847Z,99.82
2023-01-01T18:22:43.235Z,100.00
2023-01-01T18:25:13.681Z,100.00
2023-01-01T18:27:41.915Z,100.00
2023-01-01T18:30:12.808Z,100.00
2023-01-01T18:32:41.093Z,100.00
2023-01-01T18:35:10.427Z,100.00
2023-01-01T18:37:38.767Z,100.00
2023-01-01T18:40:15.619Z,100.00
2023-01-01T18:42:51.598Z,100.00
2023-01-01T18:45:21.849Z,100.00
2023-01-01T18:47:50.492Z,100.00
2023-01-01T18:50:24.113Z,100.00
2023-01-01T18:52:55.920Z,100.00
2023-01-01T18:55:28.273Z,100.00
2023-01-01T18:58:00.886Z,100.00
2023-01-01T19:00:35.397Z,100.00
2023-01-01T19:03:15.417Z,100.00
2023-01-01T19:05:44.973Z,100.00
2023-01-01T19:08:15.961Z,100.00
2023-01-01T19:10:53.825Z,100.00
2023-01-01T19:13:24.450Z,100.00
2023-01-01T19:15:55.892Z,100.00
2023-01-01T19:18:25.354Z,100.00
2023-01-01T19:21:03.774Z,100.00
2023-01-01T19:23:32.790Z,100.00
2023-01-01T19:26:05.467Z,100.00
2023-01-01T19:28:36.053Z,100.00
2023-01-01T19:31:07.652Z,100.00
2023-01-01T19:33:36.449Z,100.00
2023-01-01T19:36:05.500Z,100.00
2023-01-01T19:38:37.374Z,100.00
2023-01-01T19:41:08.371Z,100.00
2023-01-01T19:43:37.287Z,100.00
2023-01-01T19:46:10.272Z,100.00
2023-01-01T19:48:39.730Z,100.00
2023-01-01T19:51:08.426Z,100.00
2023-01-01T19:53:37.551Z,100.00
2023-01-01T19:56:10.230Z,100.00
2023-01-01T19:58:38.992Z,100.00
2023-01-01T20:01:07.900Z,100.00
2023-01-01T20:03:54.153Z,100.00
2023-01-01T20:06:23.705Z,100.00
2023-01-01T20:08:53.192Z,100.00
2023-01-01T20:11:23.560Z,100.00
2023-01-01T20:13:52.417Z,100.00
2023-01-01T20:16:21.029Z,100.00
2023-01-01T20:18:53.593Z,100.00
2023-01-01T20:21:40.104Z,100.00
2023-01-01T20:24:12.957Z,100.00
2023-01-01T20:34:16.772Z,100.00
2023-01-01T20:37:03.282Z,100.00
2023-01-01T20:39:32.631Z,100.00
2023-01-01T20:42:01.637Z,100.00
2023-01-01T20:44:31.750Z,100.00
2023-01-01T20:47:01.151Z,100.00
2023-01-01T20:49:36.172Z,100.00
2023-01-01T20:52:05.769Z,100.00
2023-01-01T20:54:34.579Z,100.00
2023-01-01T20:57:03.363Z,100.00
2023-01-01T20:59:35.866Z,100.00
2023-01-01T21:02:07.644Z,100.00
2023-01-01T21:04:46.431Z,100.00
2023-01-01T21:07:16.429Z,100.00
2023-01-01T21:09:50.385Z,100.00
2023-01-01T21:12:23.226Z,100.00
2023-01-01T21:15:02.543Z,100.00
2023-01-01T21:17:32.428Z,100.00
2023-01-01T21:20:05.487Z,100.00
2023-01-01T21:22:44.883Z,100.00
2023-01-01T21:25:50.424Z,100.00
2023-01-01T21:28:19.000Z,100.00
2023-01-01T21:30:54.427Z,100.00
2023-01-01T21:33:28.923Z,100.00
2023-01-01T21:36:07.167Z,100.00
2023-01-01T21:38:38.364Z,100.00
2023-01-01T21:41:24.043Z,100.00
2023-01-01T21:44:00.578Z,100.00
2023-01-01T21:46:43.609Z,100.00
2023-01-01T21:49:20.641Z,100.00
2023-01-01T21:51:58.945Z,100.00
2023-01-01T21:54:34.994Z,100.00
2023-01-01T21:57:17.819Z,100.00
2023-01-01T21:59:50.098Z,100.00
2023-01-01T22:02:45.348Z,100.00
2023-01-01T22:05:43.069Z,100.00
2023-01-01T22:08:32.515Z,100.00
2023-01-01T22:11:05.116Z,100.00
2023-01-01T22:13:38.622Z,100.00
2023-01-01T22:16:15.769Z,100.00
2023-01-01T22:18:46.950Z,100.00
2023-01-01T22:21:22.122Z,100.00
2023-01-01T22:24:08.308Z,100.00
2023-01-01T22:26:38.344Z,100.00
2023-01-01T22:29:26.966Z,100.00
2023-01-01T22:32:06.934Z,100.00
2023-01-01T22:34:35.615Z,100.00
2023-01-01T22:37:04.989Z,100.00
2023-01-01T22:39:38.179Z,100.00
2023-01-01T22:42:18.221Z,100.00
2023-01-01T22:44:59.720Z,100.00
2023-01-01T22:47:38.173Z,100.00
2023-01-01T22:50:10.910Z,100.00
2023-01-01T22:52:45.444Z,100.00
2023-01-01T22:55:15.639Z,100.00
2023-01-01T22:57:44.378Z,100.00
2023-01-01T23:00:15.978Z,100.00
2023-01-01T23:02:44.597Z,100.00
2023-01-01T23:05:13.736Z,100.00
2023-01-01T23:07:43.709Z,100.00
2023-01-01T23:10:18.844Z,100.00
2023-01-01T23:12:48.133Z,100.00
2023-01-01T23:15:36.756Z,100.00
2023-01-01T23:18:06.315Z,100.00
2023-01-01T23:20:34.957Z,100.00
2023-01-01T23:23:03.746Z,100.00
2023-01-01T23:25:34.006Z,100.00
2023-01-01T23:28:02.898Z,100.00
2023-01-01T23:30:31.645Z,100.00
2023-01-01T23:33:24.019Z,100.00
2023-01-01T23:35:53.997Z,100.00
2023-01-01T23:38:23.832Z,100.00
2023-01-01T23:40:53.627Z,100.00
2023-01-01T23:43:23.093Z,100.00
2023-01-01T23:45:51.921Z,100.00
2023-01-01T23:48:24.385Z,100.00
2023-01-01T23:50:53.919Z,100.00
2023-01-01T23:53:22.518Z,100.00
2023-01-01T23:55:54.330Z,100.00
2023-01-01T23:58:24.121Z,100.00
